Latest Weather Observations for Birdsville

IDQ60801

Issued at 9:02 pm EST Saturday 29 April 2017 (issued every 30 minutes, with the page automatically refreshed every 10 minutes)

About weather observations | Map of weather stations | Latest weather observations for QLD | Other Formats
Station Details ID: 038026 Name: BIRDSVILLE AIRPORT Lat: -25.90 Lon: 139.35 Height: 46.6 m
Data from the previous 72 hours. | See also: Recent months at Birdsville
Date/Time
EST
Temp
°C
App
Temp
°C
Dew
Point
°C
Rel
Hum
%
Delta-T
°C
Wind Press
QNH
hPa
Press
MSL
hPa
Rain since
9am
mm
Dir  Spd
km/h
Gust
km/h
Spd
kts
Gust
kts
29/09:00pm 19.2 14.9 3.0 34 7.5 S 15 15 8 8 1020.5 - -
29/08:30pm 19.5 15.4 2.4 32 7.9 S 13 17 7 9 1020.7 1020.5 0.0
29/08:00pm 19.9 16.3 2.7 32 8.0 S 11 15 6 8 1020.4 1020.2 0.0
29/07:30pm 20.4 16.4 2.7 31 8.3 S 13 17 7 9 1020.5 1020.3 0.0
29/07:00pm 21.0 17.4 2.8 30 8.6 SSE 11 13 6 7 1019.8 1019.6 0.0
29/06:30pm 21.8 17.7 2.5 28 9.1 SSE 13 17 7 9 1019.9 1019.7 0.0
29/06:00pm 22.4 17.7 3.0 28 9.3 SSE 17 22 9 12 1019.9 1019.7 0.0
29/05:30pm 22.7 17.4 2.8 27 9.5 SE 20 26 11 14 1019.5 1019.3 0.0
29/05:00pm 23.0 17.7 3.0 27 9.6 SSE 20 26 11 14 1019.6 1019.4 0.0
29/04:30pm 23.1 17.7 2.6 26 9.8 SSE 20 30 11 16 1019.3 1019.1 0.0
29/04:00pm 23.4 18.3 2.8 26 9.9 SSE 19 28 10 15 1019.1 1018.9 0.0
29/03:30pm 23.2 18.8 2.7 26 9.8 SSE 15 22 8 12 1019.3 1019.1 0.0
29/03:00pm 22.7 17.9 2.8 27 9.5 SE 17 26 9 14 1019.5 1019.3 0.0
29/02:30pm 23.0 18.3 3.0 27 9.6 SSE 17 24 9 13 1019.7 1019.5 0.0
29/02:00pm 22.7 18.3 2.8 27 9.5 SE 15 20 8 11 1020.1 1019.9 0.0
29/01:30pm 22.9 17.8 2.9 27 9.6 SE 19 26 10 14 1020.5 1020.3 0.0
29/01:00pm 22.5 17.8 3.1 28 9.3 ESE 17 26 9 14 1021.1 1020.9 0.0
29/12:30pm 22.6 17.5 3.2 28 9.3 SE 19 28 10 15 1021.7 1021.5 0.0
29/12:00pm 21.6 16.4 3.8 31 8.6 SE 20 30 11 16 1021.9 1021.7 0.0
29/11:30am 20.8 14.9 4.0 33 8.1 ESE 24 35 13 19 1022.6 1022.4 0.0
29/11:00am 19.8 13.6 4.3 36 7.4 SE 26 32 14 17 1023.0 1022.8 0.0
29/10:30am 18.9 13.5 4.7 39 6.8 ESE 22 30 12 16 1023.4 1023.2 0.0
29/10:00am 18.3 12.7 5.2 42 6.3 ESE 24 32 13 17 1023.5 1023.3 0.0
29/09:30am 16.1 10.8 4.8 47 5.3 ESE 22 32 12 17 1023.6 1023.4 0.0
29/09:00am 14.9 10.1 4.9 51 4.7 SE 19 26 10 14 1023.7 1023.5 0.0
29/08:30am 13.0 8.1 4.2 55 4.0 SSE 19 24 10 13 1023.6 1023.4 0.0
29/08:00am 11.6 7.8 3.9 59 3.4 SSE 13 19 7 10 1023.5 1023.3 0.0
29/07:30am 10.4 6.5 3.4 62 3.1 S 13 17 7 9 1023.3 1023.1 0.0
29/07:00am 10.3 6.4 3.3 62 3.0 SSE 13 19 7 10 1023.0 1022.8 0.0
29/06:30am 10.4 6.1 3.2 61 3.1 S 15 19 8 10 1022.9 1022.7 0.0
29/06:00am 10.8 6.5 3.1 59 3.3 S 15 19 8 10 1022.6 1022.4 0.0
29/05:30am 11.4 7.1 3.4 58 3.5 S 15 19 8 10 1022.4 1022.2 0.0
29/05:00am 11.5 7.6 3.3 57 3.6 S 13 17 7 9 1022.3 1022.1 0.0
29/04:30am 11.8 7.9 3.3 56 3.8 SSE 13 15 7 8 1022.2 1022.0 0.0
29/04:00am 12.1 8.5 3.1 54 4.0 S 11 13 6 7 1022.2 1022.0 0.0
29/03:30am 12.4 8.9 3.4 54 4.0 SSE 11 15 6 8 1022.1 1021.9 0.0
29/03:00am 12.4 8.8 3.1 53 4.1 SSE 11 15 6 8 1022.0 1021.8 0.0
29/02:30am 12.6 8.6 3.0 52 4.2 SSE 13 15 7 8 1022.1 1021.9 0.0
29/02:00am 12.8 9.2 2.9 51 4.4 SSE 11 15 6 8 1021.9 1021.7 0.0
29/01:30am 13.0 9.0 2.8 50 4.5 SSE 13 15 7 8 1022.1 1021.9 0.0
29/01:00am 13.1 8.7 2.6 49 4.6 SSE 15 19 8 10 1022.0 1021.8 0.0
29/12:30am 13.7 9.3 2.6 47 4.9 SSE 15 19 8 10 1022.4 1022.2 0.0
29/12:00am 14.0 8.8 2.6 46 5.0 SSE 19 22 10 12 1022.5 1022.3 0.0
 
Date/Time
EST
Temp
°C
App
Temp
°C
Dew
Point
°C
Rel
Hum
%
Delta-T
°C
Wind Press
QNH
hPa
Press
MSL
hPa
Rain since
9am
mm
Dir  Spd
km/h
Gust
km/h
Spd
kts
Gust
kts
28/11:30pm 15.2 9.9 3.0 44 5.5 S 20 24 11 13 1023.2 1023.0 0.0
28/11:00pm 15.6 10.6 3.4 44 5.6 S 19 24 10 13 1023.5 1023.3 0.0
28/10:30pm 14.9 10.5 2.8 44 5.4 S 15 19 8 10 1023.5 1023.3 0.0
28/10:00pm 15.6 11.6 3.1 43 5.7 S 13 17 7 9 1023.6 1023.4 0.0
28/09:30pm 15.9 11.6 3.0 42 5.9 S 15 17 8 9 1023.7 1023.5 0.0
28/09:00pm 16.2 12.2 2.6 40 6.1 S 13 17 7 9 1023.7 1023.5 0.0
28/08:30pm 16.7 12.2 2.3 38 6.5 S 15 19 8 10 1023.7 1023.5 0.0
28/08:00pm 17.2 13.1 2.4 37 6.7 S 13 17 7 9 1023.6 1023.4 0.0
28/07:30pm 17.8 13.4 2.5 36 7.0 S 15 17 8 9 1023.2 1023.0 0.0
28/07:00pm 18.4 14.0 2.7 35 7.2 S 15 19 8 10 1023.0 1022.8 0.0
28/06:30pm 19.2 14.1 3.0 34 7.6 S 19 24 10 13 1022.7 1022.5 0.0
28/06:00pm 19.8 14.4 2.6 32 8.0 S 20 26 11 14 1022.4 1022.2 0.0
28/05:30pm 20.4 14.3 2.7 31 8.3 SSE 24 32 13 17 1022.1 1021.9 0.0
28/05:00pm 20.8 14.7 2.6 30 8.5 SSE 24 32 13 17 1022.0 1021.8 0.0
28/04:30pm 20.8 15.4 2.6 30 8.5 SSE 20 30 11 16 1021.9 1021.7 0.0
28/04:00pm 20.7 14.9 2.5 30 8.5 SSE 22 32 12 17 1022.3 1022.1 0.0
28/03:30pm 21.1 15.0 2.9 30 8.6 SSE 24 33 13 18 1022.3 1022.1 0.0
28/03:00pm 20.6 14.4 2.4 30 8.5 SSE 24 37 13 20 1022.2 1022.0 0.0
28/02:30pm 20.5 13.9 2.3 30 8.5 SSE 26 35 14 19 1022.5 1022.3 0.0
28/02:00pm 20.7 13.4 2.5 30 8.5 SE 30 43 16 23 1022.8 1022.6 0.0
28/01:30pm 20.2 13.3 2.5 31 8.2 SE 28 35 15 19 1023.0 1022.8 0.0
28/01:00pm 19.8 13.3 2.6 32 8.0 SE 26 35 14 19 1023.8 1023.6 0.0
28/12:30pm 18.8 12.7 2.6 34 7.5 SE 24 35 13 19 1024.5 1024.3 0.0
28/12:00pm 18.7 12.9 2.5 34 7.4 SE 22 33 12 18 1025.4 1025.2 0.0
28/11:30am 18.1 12.0 2.8 36 7.1 SE 24 32 13 17 1026.2 1026.0 0.0
28/11:00am 17.6 10.7 2.4 36 6.9 SE 28 35 15 19 1026.5 1026.3 0.0
28/10:30am 17.1 10.3 3.1 39 6.4 SE 28 37 15 20 1026.7 1026.5 0.0
28/10:00am 16.5 10.1 3.2 41 6.1 SE 26 35 14 19 1026.8 1026.6 0.0
28/09:30am 15.4 9.4 3.5 45 5.4 SE 24 32 13 17 1026.9 1026.7 0.0
28/09:00am 14.5 8.2 3.6 48 4.9 SE 26 33 14 18 1026.8 1026.6 0.0
28/08:30am 13.0 8.4 3.7 53 4.2 SSE 17 24 9 13 1026.4 1026.2 0.0
28/08:00am 11.2 7.4 3.7 60 3.3 SSE 13 17 7 9 1026.1 1025.9 0.0
28/07:30am 10.3 6.4 3.6 63 2.9 SSE 13 17 7 9 1025.8 1025.6 0.0
28/07:00am 10.0 6.2 3.7 65 2.7 SSE 13 15 7 8 1025.5 1025.3 0.0
28/06:30am 10.0 6.1 3.5 64 2.8 SSE 13 17 7 9 1025.1 1024.9 0.0
28/06:00am 10.1 5.8 3.4 63 2.9 SSE 15 19 8 10 1024.9 1024.7 0.0
28/05:30am 10.2 5.9 3.3 62 3.0 SSE 15 17 8 9 1024.8 1024.6 0.0
28/05:00am 10.5 6.6 3.3 61 3.1 SSE 13 15 7 8 1024.8 1024.6 0.0
28/04:30am 10.9 7.0 3.2 59 3.4 S 13 17 7 9 1024.6 1024.4 0.0
28/04:00am 11.4 7.1 3.4 58 3.5 S 15 20 8 11 1024.4 1024.2 0.0
28/03:30am 11.6 6.9 3.1 56 3.7 S 17 20 9 11 1024.3 1024.1 0.0
28/03:00am 12.1 7.0 3.1 54 3.9 S 19 24 10 13 1024.3 1024.1 0.0
28/02:30am 12.4 7.0 2.6 51 4.3 S 20 26 11 14 1024.6 1024.4 0.0
28/02:00am 12.7 7.3 2.3 49 4.5 S 20 28 11 15 1024.5 1024.3 0.0
28/01:30am 13.0 7.5 1.7 46 4.9 S 20 28 11 15 1024.6 1024.4 0.0
28/01:00am 13.4 8.0 1.4 44 5.1 S 19 26 10 14 1025.0 1024.8 0.0
28/12:30am 13.6 8.1 0.6 41 5.5 S 19 22 10 12 1025.1 1024.9 0.0
28/12:00am 14.1 8.6 0.7 40 5.7 S 19 24 10 13 1025.3 1025.1 0.0
 
Date/Time
EST
Temp
°C
App
Temp
°C
Dew
Point
°C
Rel
Hum
%
Delta-T
°C
Wind Press
QNH
hPa
Press
MSL
hPa
Rain since
9am
mm
Dir  Spd
km/h
Gust
km/h
Spd
kts
Gust
kts
27/11:30pm 14.2 8.6 0.1 38 5.9 S 19 24 10 13 1025.4 1025.2 0.0
27/11:00pm 14.6 8.8 -0.3 36 6.2 S 20 24 11 13 1025.3 1025.1 0.0
27/10:30pm 14.6 9.3 -0.7 35 6.3 S 17 20 9 11 1025.3 1025.1 0.0
27/10:00pm 14.8 9.5 -0.9 34 6.5 S 17 20 9 11 1025.2 1025.0 0.0
27/09:30pm 15.4 10.4 -1.2 32 6.9 S 15 20 8 11 1025.1 1024.9 0.0
27/09:00pm 16.3 11.0 -0.8 31 7.2 S 17 20 9 11 1025.0 1024.8 0.0
27/08:30pm 16.8 11.8 -0.9 30 7.5 S 15 19 8 10 1024.7 1024.5 0.0
27/08:00pm 17.4 11.7 -0.8 29 7.7 S 19 20 10 11 1024.5 1024.3 0.0
27/07:30pm 17.8 12.5 -0.9 28 8.0 S 17 24 9 13 1024.1 1023.9 0.0
27/07:00pm 18.3 12.6 -1.0 27 8.2 S 19 24 10 13 1023.5 1023.3 0.0
27/06:30pm 18.9 12.9 -1.5 25 8.7 S 20 26 11 14 1023.3 1023.1 0.0
27/06:00pm 19.7 12.6 -0.9 25 8.9 S 26 33 14 18 1022.8 1022.6 0.0
27/05:30pm 20.3 13.0 -0.3 25 9.1 S 28 35 15 19 1022.4 1022.2 0.0
27/05:00pm 20.6 13.3 -0.1 25 9.1 S 28 35 15 19 1022.1 1021.9 0.0
27/04:30pm 20.8 13.4 -0.5 24 9.4 S 28 44 15 24 1022.0 1021.8 0.0
27/04:00pm 21.0 12.9 -0.3 24 9.4 S 32 41 17 22 1022.1 1021.9 0.0
27/03:30pm 21.3 14.0 -0.1 24 9.6 SSE 28 37 15 20 1022.0 1021.8 0.0
27/03:00pm 21.2 13.6 0.4 25 9.3 S 30 43 16 23 1022.1 1021.9 0.0
27/02:30pm 20.7 13.5 0.5 26 9.1 S 28 46 15 25 1022.4 1022.2 0.0
27/02:28pm 21.0 13.8 0.8 26 9.2 SSE 28 46 15 25 1022.4 1022.2 0.0
27/02:00pm 20.3 12.4 1.2 28 8.6 SSE 32 41 17 22 1022.7 1022.5 0.0
27/01:30pm 20.5 13.1 1.9 29 8.6 SSE 30 44 16 24 1023.0 1022.8 0.0
27/01:00pm 19.6 11.7 1.1 29 8.3 SSE 32 41 17 22 1023.6 1023.4 0.0
27/12:30pm 19.6 11.7 1.1 29 8.3 SSE 32 41 17 22 1023.9 1023.7 0.0
27/12:00pm 18.9 11.5 1.9 32 7.7 SSE 30 44 16 24 1024.5 1024.3 0.0
27/11:30am 18.2 10.8 2.1 34 7.3 SSE 30 39 16 21 1024.7 1024.5 0.0
27/11:00am 17.6 9.8 2.0 35 7.0 SSE 32 43 17 23 1024.9 1024.7 0.0
27/10:30am 17.2 9.5 2.4 37 6.7 SSE 32 41 17 22 1025.3 1025.1 0.0
27/10:00am 16.6 9.3 2.2 38 6.4 SSE 30 41 16 22 1025.3 1025.1 0.0
27/09:30am 15.6 7.7 2.4 41 5.9 SSE 33 41 18 22 1025.1 1024.9 0.0
27/09:00am 14.6 7.4 2.8 45 5.3 SSE 30 39 16 21 1025.0 1024.8 0.0
27/08:30am 13.2 7.8 2.7 49 4.6 SSE 20 30 11 16 1024.8 1024.6 0.0
27/08:00am 12.2 6.8 2.6 52 4.2 S 20 26 11 14 1024.4 1024.2 0.0
27/07:30am 11.1 6.2 2.2 54 3.8 S 17 22 9 12 1024.0 1023.8 0.0
27/07:00am 11.1 6.2 2.2 54 3.8 S 17 22 9 12 1023.7 1023.5 0.0
27/06:30am 11.3 6.8 2.1 53 3.9 S 15 19 8 10 1023.4 1023.2 0.0
27/06:00am 11.8 6.9 2.3 52 4.1 S 17 20 9 11 1023.1 1022.9 0.0
27/05:30am 12.3 7.5 2.5 51 4.3 S 17 22 9 12 1022.7 1022.5 0.0
27/05:00am 12.7 7.9 2.6 50 4.4 S 17 20 9 11 1022.4 1022.2 0.0
27/04:30am 13.0 8.6 2.8 50 4.5 S 15 20 8 11 1022.2 1022.0 0.0
27/04:00am 12.7 8.2 2.0 48 4.6 SSW 15 19 8 10 1022.3 1022.1 0.0
27/03:30am 13.6 8.8 2.5 47 4.9 S 17 24 9 13 1022.4 1022.2 0.0
27/03:00am 14.1 8.9 2.7 46 5.0 S 19 24 10 13 1022.3 1022.1 0.0
27/02:30am 14.1 9.8 3.3 48 4.9 S 15 20 8 11 1022.4 1022.2 0.0
27/02:00am 13.9 9.5 2.8 47 4.9 SSW 15 19 8 10 1022.7 1022.5 0.0
27/01:30am 14.5 10.2 3.3 47 5.1 SSW 15 19 8 10 1022.8 1022.6 0.0
27/01:00am 15.0 10.8 3.8 47 5.1 SSW 15 19 8 10 1022.8 1022.6 0.0
27/12:30am 15.4 11.2 3.9 46 5.3 SSW 15 19 8 10 1022.6 1022.4 0.0
27/12:00am 15.7 11.1 3.5 44 5.6 SSW 17 20 9 11 1022.6 1022.4 0.0
 
Date/Time
EST
Temp
°C
App
Temp
°C
Dew
Point
°C
Rel
Hum
%
Delta-T
°C
Wind Press
QNH
hPa
Press
MSL
hPa
Rain since
9am
mm
Dir  Spd
km/h
Gust
km/h
Spd
kts
Gust
kts
26/11:30pm 16.0 10.7 3.1 42 5.9 SSW 20 24 11 13 1022.4 1022.2 0.0
26/11:00pm 16.2 11.0 2.6 40 6.1 SW 19 20 10 11 1022.3 1022.1 0.0
26/10:30pm 17.0 11.8 2.6 38 6.6 SSW 19 22 10 12 1022.0 1021.8 0.0
26/10:00pm 17.7 12.6 3.2 38 6.7 SSW 19 22 10 12 1021.8 1021.6 0.0
26/09:30pm 18.6 13.1 4.0 38 6.9 SSW 22 28 12 15 1021.5 1021.3 0.0

Other Formats:

Comma delimited format used in spreadsheet applications
http://www.bom.gov.au/fwo/IDQ60801/IDQ60801.95482.axf

JavaScript Object Notation format (JSON) in row-major order
http://www.bom.gov.au/fwo/IDQ60801/IDQ60801.95482.json